sensor_id;sensor_type;location;lat;lon;timestamp;temperature;humidity
59067;DHT22;44854;50.838;4.438;2022-12-01T06:21:21;7.60;99.90
59067;DHT22;44854;50.838;4.438;2022-12-01T06:23:47;7.60;99.90
59067;DHT22;44854;50.838;4.438;2022-12-01T06:26:13;7.50;99.90
59067;DHT22;44854;50.838;4.438;2022-12-01T06:28:38;7.50;99.90
59067;DHT22;44854;50.838;4.438;2022-12-01T06:31:04;7.50;99.90
59067;DHT22;44854;50.838;4.438;2022-12-01T06:33:29;7.60;99.90
59067;DHT22;44854;50.838;4.438;2022-12-01T06:35:56;7.40;99.90
59067;DHT22;44854;50.838;4.438;2022-12-01T06:38:22;7.40;99.90
59067;DHT22;44854;50.838;4.438;2022-12-01T06:40:47;7.30;99.90
59067;DHT22;44854;50.838;4.438;2022-12-01T06:43:13;7.40;99.90
59067;DHT22;44854;50.838;4.438;2022-12-01T06:45:38;7.50;99.90
59067;DHT22;44854;50.838;4.438;2022-12-01T06:48:04;7.50;99.90
59067;DHT22;44854;50.838;4.438;2022-12-01T06:50:29;7.50;99.90
59067;DHT22;44854;50.838;4.438;2022-12-01T06:52:55;7.60;99.90
59067;DHT22;44854;50.838;4.438;2022-12-01T06:55:20;7.60;99.90
59067;DHT22;44854;50.838;4.438;2022-12-01T06:57:46;7.50;99.90
59067;DHT22;44854;50.838;4.438;2022-12-01T07:00:12;7.40;99.90
59067;DHT22;44854;50.838;4.438;2022-12-01T07:02:37;7.50;99.90
59067;DHT22;44854;50.838;4.438;2022-12-01T07:05:03;7.60;99.90
59067;DHT22;44854;50.838;4.438;2022-12-01T07:07:29;7.60;99.90
59067;DHT22;44854;50.838;4.438;2022-12-01T07:09:54;7.60;99.90
59067;DHT22;44854;50.838;4.438;2022-12-01T07:12:20;7.60;99.90
59067;DHT22;44854;50.838;4.438;2022-12-01T07:14:46;7.70;99.90
59067;DHT22;44854;50.838;4.438;2022-12-01T07:17:11;7.60;99.90
59067;DHT22;44854;50.838;4.438;2022-12-01T07:19:37;7.70;99.90
59067;DHT22;44854;50.838;4.438;2022-12-01T07:22:02;7.70;99.90
59067;DHT22;44854;50.838;4.438;2022-12-01T07:24:28;7.80;99.90
59067;DHT22;44854;50.838;4.438;2022-12-01T07:26:54;7.70;99.90
59067;DHT22;44854;50.838;4.438;2022-12-01T07:29:19;7.60;99.90
59067;DHT22;44854;50.838;4.438;2022-12-01T07:31:45;7.70;99.90
59067;DHT22;44854;50.838;4.438;2022-12-01T07:34:11;7.60;99.90
59067;DHT22;44854;50.838;4.438;2022-12-01T07:36:37;7.60;99.90
59067;DHT22;44854;50.838;4.438;2022-12-01T07:39:04;7.60;99.90
59067;DHT22;44854;50.838;4.438;2022-12-01T07:41:29;7.60;99.90
59067;DHT22;44854;50.838;4.438;2022-12-01T07:43:55;7.40;99.90
59067;DHT22;44854;50.838;4.438;2022-12-01T07:46:21;7.60;99.90
59067;DHT22;44854;50.838;4.438;2022-12-01T07:48:48;7.50;99.90
59067;DHT22;44854;50.838;4.438;2022-12-01T07:51:14;7.60;99.90
59067;DHT22;44854;50.838;4.438;2022-12-01T07:53:41;7.50;99.90
59067;DHT22;44854;50.838;4.438;2022-12-01T07:56:06;7.60;99.90
59067;DHT22;44854;50.838;4.438;2022-12-01T07:58:32;7.60;99.90
59067;DHT22;44854;50.838;4.438;2022-12-01T08:00:57;7.50;99.90
59067;DHT22;44854;50.838;4.438;2022-12-01T08:03:23;7.50;99.90
59067;DHT22;44854;50.838;4.438;2022-12-01T08:05:55;7.50;99.90
59067;DHT22;44854;50.838;4.438;2022-12-01T08:08:21;7.40;99.90
59067;DHT22;44854;50.838;4.438;2022-12-01T08:10:47;7.40;99.90
59067;DHT22;44854;50.838;4.438;2022-12-01T08:13:12;7.50;99.90
59067;DHT22;44854;50.838;4.438;2022-12-01T08:15:38;7.50;99.90
59067;DHT22;44854;50.838;4.438;2022-12-01T08:18:03;7.50;99.90
59067;DHT22;44854;50.838;4.438;2022-12-01T08:20:29;7.50;99.90
59067;DHT22;44854;50.838;4.438;2022-12-01T08:22:54;7.50;99.90
59067;DHT22;44854;50.838;4.438;2022-12-01T08:25:20;7.60;99.90
59067;DHT22;44854;50.838;4.438;2022-12-01T08:27:46;7.60;99.90
59067;DHT22;44854;50.838;4.438;2022-12-01T08:30:11;7.70;99.90
59067;DHT22;44854;50.838;4.438;2022-12-01T08:32:37;7.70;99.90
59067;DHT22;44854;50.838;4.438;2022-12-01T08:35:03;7.60;99.90
59067;DHT22;44854;50.838;4.438;2022-12-01T08:37:28;7.60;99.90
59067;DHT22;44854;50.838;4.438;2022-12-01T08:39:54;7.70;99.90
59067;DHT22;44854;50.838;4.438;2022-12-01T08:42:19;7.70;99.90
59067;DHT22;44854;50.838;4.438;2022-12-01T08:44:45;7.60;99.90
59067;DHT22;44854;50.838;4.438;2022-12-01T08:47:11;7.60;99.90
59067;DHT22;44854;50.838;4.438;2022-12-01T08:49:37;7.60;99.90
59067;DHT22;44854;50.838;4.438;2022-12-01T08:52:02;7.60;99.90
59067;DHT22;44854;50.838;4.438;2022-12-01T08:54:28;7.70;99.90
59067;DHT22;44854;50.838;4.438;2022-12-01T08:56:53;7.60;99.90
59067;DHT22;44854;50.838;4.438;2022-12-01T08:59:19;7.70;99.90
59067;DHT22;44854;50.838;4.438;2022-12-01T09:01:45;7.70;99.90
59067;DHT22;44854;50.838;4.438;2022-12-01T09:04:22;7.60;99.90
59067;DHT22;44854;50.838;4.438;2022-12-01T09:06:49;7.70;99.90
59067;DHT22;44854;50.838;4.438;2022-12-01T09:09:19;7.60;99.90
59067;DHT22;44854;50.838;4.438;2022-12-01T09:11:45;7.70;99.90
59067;DHT22;44854;50.838;4.438;2022-12-01T09:14:11;7.80;99.90
59067;DHT22;44854;50.838;4.438;2022-12-01T09:16:37;7.70;99.90
59067;DHT22;44854;50.838;4.438;2022-12-01T09:19:03;7.80;99.90
59067;DHT22;44854;50.838;4.438;2022-12-01T09:21:31;7.70;99.90
59067;DHT22;44854;50.838;4.438;2022-12-01T09:23:57;7.80;99.90
59067;DHT22;44854;50.838;4.438;2022-12-01T09:26:22;7.70;99.90
59067;DHT22;44854;50.838;4.438;2022-12-01T09:28:48;7.60;99.90
59067;DHT22;44854;50.838;4.438;2022-12-01T09:31:16;7.70;99.90
59067;DHT22;44854;50.838;4.438;2022-12-01T09:33:42;7.70;99.90
59067;DHT22;44854;50.838;4.438;2022-12-01T09:36:08;7.70;99.90
59067;DHT22;44854;50.838;4.438;2022-12-01T09:38:34;7.80;99.90
59067;DHT22;44854;50.838;4.438;2022-12-01T09:41:03;7.90;99.90
59067;DHT22;44854;50.838;4.438;2022-12-01T09:43:33;7.90;99.90
59067;DHT22;44854;50.838;4.438;2022-12-01T09:46:01;7.90;99.90
59067;DHT22;44854;50.838;4.438;2022-12-01T09:48:31;7.90;99.90
59067;DHT22;44854;50.838;4.438;2022-12-01T09:50:57;7.90;99.90
59067;DHT22;44854;50.838;4.438;2022-12-01T09:53:23;7.80;99.90
59067;DHT22;44854;50.838;4.438;2022-12-01T09:55:49;7.90;99.90
59067;DHT22;44854;50.838;4.438;2022-12-01T09:58:17;8.00;99.90
59067;DHT22;44854;50.838;4.438;2022-12-01T10:00:43;8.00;99.90
59067;DHT22;44854;50.838;4.438;2022-12-01T10:08:09;8.00;99.90
59067;DHT22;44854;50.838;4.438;2022-12-01T10:10:36;8.00;99.90
59067;DHT22;44854;50.838;4.438;2022-12-01T10:13:07;8.10;99.90
59067;DHT22;44854;50.838;4.438;2022-12-01T10:15:51;8.10;99.90
59067;DHT22;44854;50.838;4.438;2022-12-01T10:23:47;8.00;99.90
59067;DHT22;44854;50.838;4.438;2022-12-01T10:26:31;8.00;99.90
59067;DHT22;44854;50.838;4.438;2022-12-01T10:34:24;8.20;99.90
59067;DHT22;44854;50.838;4.438;2022-12-01T10:36:51;8.30;99.90
59067;DHT22;44854;50.838;4.438;2022-12-01T10:39:18;8.30;99.90
59067;DHT22;44854;50.838;4.438;2022-12-01T10:41:44;8.30;99.90
59067;DHT22;44854;50.838;4.438;2022-12-01T10:44:10;8.30;99.90
59067;DHT22;44854;50.838;4.438;2022-12-01T10:49:08;8.40;99.90
59067;DHT22;44854;50.838;4.438;2022-12-01T10:51:44;8.50;99.90
59067;DHT22;44854;50.838;4.438;2022-12-01T10:54:10;8.40;99.90
59067;DHT22;44854;50.838;4.438;2022-12-01T10:56:38;8.30;99.90
59067;DHT22;44854;50.838;4.438;2022-12-01T10:59:04;8.40;99.90
59067;DHT22;44854;50.838;4.438;2022-12-01T11:01:45;8.40;99.90
59067;DHT22;44854;50.838;4.438;2022-12-01T11:04:23;8.40;99.90
59067;DHT22;44854;50.838;4.438;2022-12-01T11:06:51;8.40;99.90
59067;DHT22;44854;50.838;4.438;2022-12-01T11:09:18;8.40;99.90
59067;DHT22;44854;50.838;4.438;2022-12-01T11:11:44;8.40;99.90
59067;DHT22;44854;50.838;4.438;2022-12-01T11:14:20;8.40;99.90
59067;DHT22;44854;50.838;4.438;2022-12-01T11:16:47;8.40;99.90
59067;DHT22;44854;50.838;4.438;2022-12-01T11:19:30;8.60;99.90
59067;DHT22;44854;50.838;4.438;2022-12-01T11:22:00;8.70;99.90
59067;DHT22;44854;50.838;4.438;2022-12-01T11:26:55;8.80;99.90
59067;DHT22;44854;50.838;4.438;2022-12-01T11:31:52;8.70;99.90
59067;DHT22;44854;50.838;4.438;2022-12-01T11:36:47;8.80;99.90
59067;DHT22;44854;50.838;4.438;2022-12-01T11:39:20;8.90;99.90
59067;DHT22;44854;50.838;4.438;2022-12-01T11:41:46;8.80;99.90
59067;DHT22;44854;50.838;4.438;2022-12-01T11:44:17;8.80;99.90
59067;DHT22;44854;50.838;4.438;2022-12-01T11:46:43;8.80;99.90
59067;DHT22;44854;50.838;4.438;2022-12-01T11:49:16;8.70;99.90
59067;DHT22;44854;50.838;4.438;2022-12-01T11:51:42;8.60;99.90
59067;DHT22;44854;50.838;4.438;2022-12-01T11:54:24;8.60;99.90
59067;DHT22;44854;50.838;4.438;2022-12-01T11:56:50;8.70;99.90
59067;DHT22;44854;50.838;4.438;2022-12-01T11:59:23;8.90;99.90
59067;DHT22;44854;50.838;4.438;2022-12-01T12:11:46;8.80;99.90
59067;DHT22;44854;50.838;4.438;2022-12-01T12:14:26;8.90;99.90
59067;DHT22;44854;50.838;4.438;2022-12-01T12:22:19;8.90;99.90
59067;DHT22;44854;50.838;4.438;2022-12-01T12:45:30;8.60;99.90
59067;DHT22;44854;50.838;4.438;2022-12-01T12:50:46;8.80;99.90
59067;DHT22;44854;50.838;4.438;2022-12-01T12:53:22;8.90;99.90
59067;DHT22;44854;50.838;4.438;2022-12-01T12:55:49;8.80;99.90
59067;DHT22;44854;50.838;4.438;2022-12-01T12:58:19;8.70;99.90
59067;DHT22;44854;50.838;4.438;2022-12-01T13:01:00;8.70;99.90
59067;DHT22;44854;50.838;4.438;2022-12-01T13:03:37;8.80;99.90
59067;DHT22;44854;50.838;4.438;2022-12-01T13:06:40;8.80;99.90
59067;DHT22;44854;50.838;4.438;2022-12-01T13:09:21;8.90;99.90
59067;DHT22;44854;50.838;4.438;2022-12-01T13:11:49;8.80;99.90
59067;DHT22;44854;50.838;4.438;2022-12-01T13:14:23;8.60;99.90
59067;DHT22;44854;50.838;4.438;2022-12-01T13:16:51;8.70;99.90
59067;DHT22;44854;50.838;4.438;2022-12-01T13:19:24;8.70;99.90
59067;DHT22;44854;50.838;4.438;2022-12-01T13:21:51;8.70;99.90
59067;DHT22;44854;50.838;4.438;2022-12-01T13:24:18;8.70;99.90
59067;DHT22;44854;50.838;4.438;2022-12-01T13:26:46;8.70;99.90
59067;DHT22;44854;50.838;4.438;2022-12-01T13:29:13;8.80;99.90
59067;DHT22;44854;50.838;4.438;2022-12-01T13:31:41;8.80;99.90
59067;DHT22;44854;50.838;4.438;2022-12-01T13:34:14;8.90;99.90
59067;DHT22;44854;50.838;4.438;2022-12-01T13:36:46;8.80;99.90
59067;DHT22;44854;50.838;4.438;2022-12-01T13:39:16;8.80;99.90
59067;DHT22;44854;50.838;4.438;2022-12-01T13:41:43;8.80;99.90
59067;DHT22;44854;50.838;4.438;2022-12-01T13:44:43;8.80;99.90
59067;DHT22;44854;50.838;4.438;2022-12-01T13:47:28;8.90;99.90
59067;DHT22;44854;50.838;4.438;2022-12-01T13:49:50;8.80;99.90
59067;DHT22;44854;50.838;4.438;2022-12-01T13:57:26;8.50;99.90
59067;DHT22;44854;50.838;4.438;2022-12-01T14:02:25;8.70;99.90
59067;DHT22;44854;50.838;4.438;2022-12-01T14:04:51;8.70;99.90
59067;DHT22;44854;50.838;4.438;2022-12-01T14:07:27;8.60;99.90
59067;DHT22;44854;50.838;4.438;2022-12-01T14:09:57;8.60;99.90
59067;DHT22;44854;50.838;4.438;2022-12-01T14:12:31;8.70;99.90
59067;DHT22;44854;50.838;4.438;2022-12-01T14:15:36;8.60;99.90
59067;DHT22;44854;50.838;4.438;2022-12-01T14:17:57;8.60;99.90
59067;DHT22;44854;50.838;4.438;2022-12-01T14:20:23;8.50;99.90
59067;DHT22;44854;50.838;4.438;2022-12-01T14:25:33;8.50;99.90
59067;DHT22;44854;50.838;4.438;2022-12-01T14:28:00;8.30;99.90
59067;DHT22;44854;50.838;4.438;2022-12-01T14:35:47;8.40;99.90
59067;DHT22;44854;50.838;4.438;2022-12-01T14:38:13;8.60;99.90
59067;DHT22;44854;50.838;4.438;2022-12-01T14:40:38;8.40;99.90
59067;DHT22;44854;50.838;4.438;2022-12-01T14:43:04;8.50;99.90
59067;DHT22;44854;50.838;4.438;2022-12-01T14:45:54;8.60;99.90
59067;DHT22;44854;50.838;4.438;2022-12-01T14:48:23;8.60;99.90
59067;DHT22;44854;50.838;4.438;2022-12-01T14:50:52;8.60;99.90
59067;DHT22;44854;50.838;4.438;2022-12-01T14:55:51;8.60;99.90
59067;DHT22;44854;50.838;4.438;2022-12-01T14:58:18;8.60;99.90
59067;DHT22;44854;50.838;4.438;2022-12-01T15:03:19;8.60;99.90
59067;DHT22;44854;50.838;4.438;2022-12-01T15:05:44;8.70;99.90
59067;DHT22;44854;50.838;4.438;2022-12-01T15:08:24;8.50;99.90
59067;DHT22;44854;50.838;4.438;2022-12-01T15:10:51;8.60;99.90
59067;DHT22;44854;50.838;4.438;2022-12-01T15:15:59;8.60;99.90
59067;DHT22;44854;50.838;4.438;2022-12-01T15:18:27;8.60;99.90
59067;DHT22;44854;50.838;4.438;2022-12-01T15:23:51;8.60;99.90
59067;DHT22;44854;50.838;4.438;2022-12-01T15:26:17;8.70;99.90
59067;DHT22;44854;50.838;4.438;2022-12-01T15:28:43;8.70;99.90
59067;DHT22;44854;50.838;4.438;2022-12-01T15:31:10;8.50;99.90
59067;DHT22;44854;50.838;4.438;2022-12-01T15:33:36;8.60;99.90
59067;DHT22;44854;50.838;4.438;2022-12-01T15:36:04;8.60;99.90
59067;DHT22;44854;50.838;4.438;2022-12-01T15:38:33;8.60;99.90
59067;DHT22;44854;50.838;4.438;2022-12-01T15:41:00;8.70;99.90
59067;DHT22;44854;50.838;4.438;2022-12-01T15:43:33;8.60;99.90
59067;DHT22;44854;50.838;4.438;2022-12-01T15:46:15;8.50;99.90
59067;DHT22;44854;50.838;4.438;2022-12-01T15:48:41;8.60;99.90
59067;DHT22;44854;50.838;4.438;2022-12-01T15:51:12;8.50;99.90
59067;DHT22;44854;50.838;4.438;2022-12-01T15:53:44;8.50;99.90
59067;DHT22;44854;50.838;4.438;2022-12-01T15:56:11;8.50;99.90
59067;DHT22;44854;50.838;4.438;2022-12-01T15:58:41;8.50;99.90
59067;DHT22;44854;50.838;4.438;2022-12-01T16:01:15;8.60;99.90
59067;DHT22;44854;50.838;4.438;2022-12-01T16:03:51;8.60;99.90
59067;DHT22;44854;50.838;4.438;2022-12-01T16:06:18;8.60;99.90
59067;DHT22;44854;50.838;4.438;2022-12-01T16:08:51;8.50;99.90
59067;DHT22;44854;50.838;4.438;2022-12-01T16:11:17;8.50;99.90
59067;DHT22;44854;50.838;4.438;2022-12-01T16:14:04;8.40;99.90
59067;DHT22;44854;50.838;4.438;2022-12-01T16:16:44;8.40;99.90
59067;DHT22;44854;50.838;4.438;2022-12-01T16:24:21;8.40;99.90
59067;DHT22;44854;50.838;4.438;2022-12-01T16:26:48;8.40;99.90
59067;DHT22;44854;50.838;4.438;2022-12-01T16:29:17;8.40;99.90
59067;DHT22;44854;50.838;4.438;2022-12-01T16:31:43;8.20;99.90
59067;DHT22;44854;50.838;4.438;2022-12-01T16:34:11;8.20;99.90
59067;DHT22;44854;50.838;4.438;2022-12-01T16:36:39;8.20;99.90
59067;DHT22;44854;50.838;4.438;2022-12-01T16:39:05;8.20;99.90
59067;DHT22;44854;50.838;4.438;2022-12-01T16:41:32;8.30;99.90
59067;DHT22;44854;50.838;4.438;2022-12-01T16:43:59;8.20;99.90
59067;DHT22;44854;50.838;4.438;2022-12-01T16:46:25;8.10;99.90
59067;DHT22;44854;50.838;4.438;2022-12-01T16:48:53;8.30;99.90
59067;DHT22;44854;50.838;4.438;2022-12-01T16:51:19;8.20;99.90
59067;DHT22;44854;50.838;4.438;2022-12-01T16:53:44;8.30;99.90
59067;DHT22;44854;50.838;4.438;2022-12-01T16:56:11;8.30;99.90
59067;DHT22;44854;50.838;4.438;2022-12-01T16:58:36;8.40;99.90
59067;DHT22;44854;50.838;4.438;2022-12-01T17:01:03;8.40;99.90
59067;DHT22;44854;50.838;4.438;2022-12-01T17:03:29;8.40;99.90
59067;DHT22;44854;50.838;4.438;2022-12-01T17:05:54;8.30;99.90
59067;DHT22;44854;50.838;4.438;2022-12-01T17:08:20;8.30;99.90
59067;DHT22;44854;50.838;4.438;2022-12-01T17:10:46;8.10;99.90
59067;DHT22;44854;50.838;4.438;2022-12-01T17:13:13;8.10;99.90
59067;DHT22;44854;50.838;4.438;2022-12-01T17:15:40;8.10;99.90
59067;DHT22;44854;50.838;4.438;2022-12-01T17:18:05;7.90;99.90
59067;DHT22;44854;50.838;4.438;2022-12-01T17:20:31;8.00;99.90
59067;DHT22;44854;50.838;4.438;2022-12-01T17:22:57;8.00;99.90
59067;DHT22;44854;50.838;4.438;2022-12-01T17:25:23;8.00;99.90
59067;DHT22;44854;50.838;4.438;2022-12-01T17:27:49;8.10;99.90
59067;DHT22;44854;50.838;4.438;2022-12-01T17:30:15;8.20;99.90
59067;DHT22;44854;50.838;4.438;2022-12-01T17:32:41;8.10;99.90
59067;DHT22;44854;50.838;4.438;2022-12-01T17:35:07;8.00;99.90
59067;DHT22;44854;50.838;4.438;2022-12-01T17:37:32;8.00;99.90
59067;DHT22;44854;50.838;4.438;2022-12-01T17:40:04;8.10;99.90
59067;DHT22;44854;50.838;4.438;2022-12-01T17:42:30;8.20;99.90
59067;DHT22;44854;50.838;4.438;2022-12-01T17:44:56;8.10;99.90
59067;DHT22;44854;50.838;4.438;2022-12-01T17:47:22;8.10;99.90
59067;DHT22;44854;50.838;4.438;2022-12-01T17:49:48;7.90;99.90
59067;DHT22;44854;50.838;4.438;2022-12-01T17:52:13;7.90;99.90
59067;DHT22;44854;50.838;4.438;2022-12-01T17:54:39;8.00;99.90
59067;DHT22;44854;50.838;4.438;2022-12-01T17:57:04;8.00;99.90
59067;DHT22;44854;50.838;4.438;2022-12-01T17:59:32;7.90;99.90
59067;DHT22;44854;50.838;4.438;2022-12-01T18:01:57;7.80;99.90
59067;DHT22;44854;50.838;4.438;2022-12-01T18:04:23;7.90;99.90
59067;DHT22;44854;50.838;4.438;2022-12-01T18:06:48;7.90;99.90
59067;DHT22;44854;50.838;4.438;2022-12-01T18:09:14;7.90;99.90
59067;DHT22;44854;50.838;4.438;2022-12-01T18:11:39;8.00;99.90
59067;DHT22;44854;50.838;4.438;2022-12-01T18:14:05;8.00;99.90
59067;DHT22;44854;50.838;4.438;2022-12-01T18:16:30;8.10;99.90
59067;DHT22;44854;50.838;4.438;2022-12-01T18:18:56;8.00;99.90
59067;DHT22;44854;50.838;4.438;2022-12-01T18:21:23;7.80;99.90
59067;DHT22;44854;50.838;4.438;2022-12-01T18:26:14;7.90;99.90
59067;DHT22;44854;50.838;4.438;2022-12-01T18:28:40;7.80;99.90
59067;DHT22;44854;50.838;4.438;2022-12-01T18:31:07;7.90;99.90
59067;DHT22;44854;50.838;4.438;2022-12-01T18:33:33;8.00;99.90
59067;DHT22;44854;50.838;4.438;2022-12-01T18:35:59;8.10;99.90
59067;DHT22;44854;50.838;4.438;2022-12-01T18:38:25;8.00;99.90
59067;DHT22;44854;50.838;4.438;2022-12-01T18:40:58;8.00;99.90
59067;DHT22;44854;50.838;4.438;2022-12-01T18:43:27;7.90;99.90
59067;DHT22;44854;50.838;4.438;2022-12-01T18:45:53;7.90;99.90
59067;DHT22;44854;50.838;4.438;2022-12-01T18:48:19;7.90;99.90
59067;DHT22;44854;50.838;4.438;2022-12-01T18:50:44;7.90;99.90
59067;DHT22;44854;50.838;4.438;2022-12-01T18:53:10;8.00;99.90
59067;DHT22;44854;50.838;4.438;2022-12-01T18:55:36;7.90;99.90
59067;DHT22;44854;50.838;4.438;2022-12-01T18:58:02;7.90;99.90
59067;DHT22;44854;50.838;4.438;2022-12-01T19:00:27;7.90;99.90
59067;DHT22;44854;50.838;4.438;2022-12-01T19:02:53;7.80;99.90
59067;DHT22;44854;50.838;4.438;2022-12-01T19:05:19;7.90;99.90
59067;DHT22;44854;50.838;4.438;2022-12-01T19:07:44;7.90;99.90
59067;DHT22;44854;50.838;4.438;2022-12-01T19:10:10;7.70;99.90
59067;DHT22;44854;50.838;4.438;2022-12-01T19:12:36;7.70;99.90
59067;DHT22;44854;50.838;4.438;2022-12-01T19:15:01;7.70;99.90
59067;DHT22;44854;50.838;4.438;2022-12-01T19:17:28;7.80;99.90
59067;DHT22;44854;50.838;4.438;2022-12-01T19:19:54;7.80;99.90
59067;DHT22;44854;50.838;4.438;2022-12-01T19:22:19;7.80;99.90
59067;DHT22;44854;50.838;4.438;2022-12-01T19:24:45;7.90;99.90
59067;DHT22;44854;50.838;4.438;2022-12-01T19:27:11;7.90;99.90
59067;DHT22;44854;50.838;4.438;2022-12-01T19:29:36;7.80;99.90
59067;DHT22;44854;50.838;4.438;2022-12-01T19:32:02;8.10;99.90
59067;DHT22;44854;50.838;4.438;2022-12-01T19:34:27;7.90;99.90
59067;DHT22;44854;50.838;4.438;2022-12-01T19:36:53;7.90;99.90
59067;DHT22;44854;50.838;4.438;2022-12-01T19:39:18;8.00;99.90
59067;DHT22;44854;50.838;4.438;2022-12-01T19:41:44;7.80;99.90
59067;DHT22;44854;50.838;4.438;2022-12-01T19:44:09;7.80;99.90
59067;DHT22;44854;50.838;4.438;2022-12-01T19:46:36;7.90;99.90
59067;DHT22;44854;50.838;4.438;2022-12-01T19:49:01;7.80;99.90
59067;DHT22;44854;50.838;4.438;2022-12-01T19:51:30;7.90;99.90
59067;DHT22;44854;50.838;4.438;2022-12-01T19:53:56;8.00;99.90
59067;DHT22;44854;50.838;4.438;2022-12-01T19:56:22;7.90;99.90
59067;DHT22;44854;50.838;4.438;2022-12-01T19:58:48;8.00;99.90
59067;DHT22;44854;50.838;4.438;2022-12-01T20:01:15;7.90;99.90
59067;DHT22;44854;50.838;4.438;2022-12-01T20:03:42;7.90;99.90
59067;DHT22;44854;50.838;4.438;2022-12-01T20:06:09;8.10;99.90
59067;DHT22;44854;50.838;4.438;2022-12-01T20:08:35;7.80;99.90
59067;DHT22;44854;50.838;4.438;2022-12-01T20:11:01;7.90;99.90
59067;DHT22;44854;50.838;4.438;2022-12-01T20:13:29;7.90;99.90
59067;DHT22;44854;50.838;4.438;2022-12-01T20:15:59;8.10;99.90
59067;DHT22;44854;50.838;4.438;2022-12-01T20:18:24;8.00;99.90
59067;DHT22;44854;50.838;4.438;2022-12-01T20:21:00;7.90;99.90
59067;DHT22;44854;50.838;4.438;2022-12-01T20:23:25;7.80;99.90
59067;DHT22;44854;50.838;4.438;2022-12-01T20:25:51;7.90;99.90
59067;DHT22;44854;50.838;4.438;2022-12-01T20:28:16;8.00;99.90
59067;DHT22;44854;50.838;4.438;2022-12-01T20:30:42;8.00;99.90
59067;DHT22;44854;50.838;4.438;2022-12-01T20:33:07;8.10;99.90
59067;DHT22;44854;50.838;4.438;2022-12-01T20:35:33;8.10;99.90
59067;DHT22;44854;50.838;4.438;2022-12-01T20:37:58;7.90;99.90
59067;DHT22;44854;50.838;4.438;2022-12-01T20:40:24;7.90;99.90
59067;DHT22;44854;50.838;4.438;2022-12-01T20:42:49;7.90;99.90
59067;DHT22;44854;50.838;4.438;2022-12-01T20:45:15;8.00;99.90
59067;DHT22;44854;50.838;4.438;2022-12-01T20:47:40;8.00;99.90
59067;DHT22;44854;50.838;4.438;2022-12-01T20:50:06;8.10;99.90
59067;DHT22;44854;50.838;4.438;2022-12-01T20:52:33;7.90;99.90
59067;DHT22;44854;50.838;4.438;2022-12-01T20:55:03;7.80;99.90
59067;DHT22;44854;50.838;4.438;2022-12-01T20:57:29;7.80;99.90
59067;DHT22;44854;50.838;4.438;2022-12-01T20:59:54;7.70;99.90
59067;DHT22;44854;50.838;4.438;2022-12-01T21:02:20;7.70;99.90
59067;DHT22;44854;50.838;4.438;2022-12-01T21:04:45;7.60;99.90
59067;DHT22;44854;50.838;4.438;2022-12-01T21:07:11;7.60;99.90
59067;DHT22;44854;50.838;4.438;2022-12-01T21:09:36;7.60;99.90
59067;DHT22;44854;50.838;4.438;2022-12-01T21:12:05;7.50;99.90
59067;DHT22;44854;50.838;4.438;2022-12-01T21:17:40;7.50;99.90
59067;DHT22;44854;50.838;4.438;2022-12-01T21:20:19;7.50;99.90
59067;DHT22;44854;50.838;4.438;2022-12-01T21:22:47;7.60;99.90
59067;DHT22;44854;50.838;4.438;2022-12-01T21:25:15;7.60;99.90
59067;DHT22;44854;50.838;4.438;2022-12-01T21:27:45;7.50;99.90
59067;DHT22;44854;50.838;4.438;2022-12-01T21:30:15;7.50;99.90
59067;DHT22;44854;50.838;4.438;2022-12-01T21:32:41;7.50;99.90
59067;DHT22;44854;50.838;4.438;2022-12-01T21:35:13;7.60;99.90
59067;DHT22;44854;50.838;4.438;2022-12-01T21:37:38;7.60;99.90
59067;DHT22;44854;50.838;4.438;2022-12-01T21:40:11;7.60;99.90
59067;DHT22;44854;50.838;4.438;2022-12-01T21:42:38;7.70;99.90
59067;DHT22;44854;50.838;4.438;2022-12-01T21:45:04;7.80;99.90
59067;DHT22;44854;50.838;4.438;2022-12-01T21:47:37;7.60;99.90
59067;DHT22;44854;50.838;4.438;2022-12-01T21:50:04;7.70;99.90
59067;DHT22;44854;50.838;4.438;2022-12-01T21:52:36;7.70;99.90
59067;DHT22;44854;50.838;4.438;2022-12-01T21:57:39;7.60;99.90
59067;DHT22;44854;50.838;4.438;2022-12-01T22:02:51;7.70;99.90
59067;DHT22;44854;50.838;4.438;2022-12-01T22:07:48;7.80;99.90
59067;DHT22;44854;50.838;4.438;2022-12-01T22:12:57;7.70;99.90
59067;DHT22;44854;50.838;4.438;2022-12-01T22:15:29;7.70;99.90
59067;DHT22;44854;50.838;4.438;2022-12-01T22:17:59;7.60;99.90
59067;DHT22;44854;50.838;4.438;2022-12-01T22:20:25;7.40;99.90
59067;DHT22;44854;50.838;4.438;2022-12-01T22:22:50;7.40;99.90
59067;DHT22;44854;50.838;4.438;2022-12-01T22:25:25;7.50;99.90
59067;DHT22;44854;50.838;4.438;2022-12-01T22:27:51;7.60;99.90
59067;DHT22;44854;50.838;4.438;2022-12-01T22:30:18;7.70;99.90
59067;DHT22;44854;50.838;4.438;2022-12-01T22:32:51;7.60;99.90
59067;DHT22;44854;50.838;4.438;2022-12-01T22:43:10;7.70;99.90
59067;DHT22;44854;50.838;4.438;2022-12-01T22:45:39;7.70;99.90
59067;DHT22;44854;50.838;4.438;2022-12-01T22:48:04;7.70;99.90
59067;DHT22;44854;50.838;4.438;2022-12-01T22:50:33;7.70;99.90
59067;DHT22;44854;50.838;4.438;2022-12-01T22:53:11;7.60;99.90
59067;DHT22;44854;50.838;4.438;2022-12-01T22:55:36;7.60;99.90
59067;DHT22;44854;50.838;4.438;2022-12-01T22:58:20;7.60;99.90
59067;DHT22;44854;50.838;4.438;2022-12-01T23:00:47;7.60;99.90
59067;DHT22;44854;50.838;4.438;2022-12-01T23:03:13;7.60;99.90
59067;DHT22;44854;50.838;4.438;2022-12-01T23:05:40;7.60;99.90
59067;DHT22;44854;50.838;4.438;2022-12-01T23:08:09;7.70;99.90
59067;DHT22;44854;50.838;4.438;2022-12-01T23:10:35;7.70;99.90
59067;DHT22;44854;50.838;4.438;2022-12-01T23:13:35;7.70;99.90
59067;DHT22;44854;50.838;4.438;2022-12-01T23:15:53;7.70;99.90
59067;DHT22;44854;50.838;4.438;2022-12-01T23:18:20;7.70;99.90
